sensor_id;sensor_type;location;lat;lon;timestamp;P1;durP1;ratioP1;P2;durP2;ratioP2
53875;SDS011;39789;53.216;5.624;2023-03-01T00:00:11;109.03;;;19.67;;
53875;SDS011;39789;53.216;5.624;2023-03-01T00:02:37;139.07;;;20.98;;
53875;SDS011;39789;53.216;5.624;2023-03-01T00:05:03;279.90;;;27.23;;
53875;SDS011;39789;53.216;5.624;2023-03-01T00:07:29;136.98;;;20.35;;
53875;SDS011;39789;53.216;5.624;2023-03-01T00:09:55;111.45;;;18.50;;
53875;SDS011;39789;53.216;5.624;2023-03-01T00:12:20;103.00;;;18.02;;
53875;SDS011;39789;53.216;5.624;2023-03-01T00:14:46;55.65;;;15.65;;
53875;SDS011;39789;53.216;5.624;2023-03-01T00:17:12;30.05;;;12.73;;
53875;SDS011;39789;53.216;5.624;2023-03-01T00:19:38;16.75;;;8.88;;
53875;SDS011;39789;53.216;5.624;2023-03-01T00:22:04;291.02;;;25.48;;
53875;SDS011;39789;53.216;5.624;2023-03-01T00:24:30;275.10;;;21.15;;
53875;SDS011;39789;53.216;5.624;2023-03-01T00:26:55;257.25;;;16.00;;
53875;SDS011;39789;53.216;5.624;2023-03-01T00:29:22;229.48;;;15.35;;
53875;SDS011;39789;53.216;5.624;2023-03-01T00:31:48;222.00;;;16.60;;
53875;SDS011;39789;53.216;5.624;2023-03-01T00:34:14;257.60;;;17.80;;
53875;SDS011;39789;53.216;5.624;2023-03-01T00:36:40;275.45;;;18.83;;
53875;SDS011;39789;53.216;5.624;2023-03-01T00:39:09;210.98;;;16.48;;
53875;SDS011;39789;53.216;5.624;2023-03-01T00:41:36;173.02;;;14.00;;
53875;SDS011;39789;53.216;5.624;2023-03-01T00:44:02;99.80;;;12.40;;
53875;SDS011;39789;53.216;5.624;2023-03-01T00:46:28;239.00;;;20.45;;
53875;SDS011;39789;53.216;5.624;2023-03-01T00:48:55;375.10;;;22.52;;
53875;SDS011;39789;53.216;5.624;2023-03-01T00:51:25;366.13;;;20.73;;
53875;SDS011;39789;53.216;5.624;2023-03-01T00:53:55;182.65;;;14.35;;
53875;SDS011;39789;53.216;5.624;2023-03-01T00:56:22;274.70;;;18.65;;
53875;SDS011;39789;53.216;5.624;2023-03-01T00:58:49;194.13;;;16.95;;
53875;SDS011;39789;53.216;5.624;2023-03-01T01:01:17;200.27;;;15.70;;
53875;SDS011;39789;53.216;5.624;2023-03-01T01:03:47;361.15;;;19.58;;
53875;SDS011;39789;53.216;5.624;2023-03-01T01:06:23;167.57;;;15.10;;
53875;SDS011;39789;53.216;5.624;2023-03-01T01:08:59;86.50;;;10.95;;
53875;SDS011;39789;53.216;5.624;2023-03-01T01:11:26;92.70;;;11.35;;
53875;SDS011;39789;53.216;5.624;2023-03-01T01:13:53;87.80;;;10.90;;
53875;SDS011;39789;53.216;5.624;2023-03-01T01:16:20;138.30;;;12.07;;
53875;SDS011;39789;53.216;5.624;2023-03-01T01:18:49;152.25;;;12.25;;
53875;SDS011;39789;53.216;5.624;2023-03-01T01:21:18;205.95;;;13.85;;
53875;SDS011;39789;53.216;5.624;2023-03-01T01:23:58;107.93;;;10.38;;
53875;SDS011;39789;53.216;5.624;2023-03-01T01:26:42;118.88;;;12.77;;
53875;SDS011;39789;53.216;5.624;2023-03-01T01:29:12;215.30;;;14.70;;
53875;SDS011;39789;53.216;5.624;2023-03-01T01:31:39;351.75;;;19.50;;
53875;SDS011;39789;53.216;5.624;2023-03-01T01:34:19;189.00;;;13.23;;
53875;SDS011;39789;53.216;5.624;2023-03-01T01:36:57;174.43;;;11.85;;
53875;SDS011;39789;53.216;5.624;2023-03-01T01:39:27;200.15;;;13.57;;
53875;SDS011;39789;53.216;5.624;2023-03-01T01:41:54;179.90;;;13.15;;
53875;SDS011;39789;53.216;5.624;2023-03-01T01:44:21;180.77;;;12.65;;
53875;SDS011;39789;53.216;5.624;2023-03-01T01:46:56;181.20;;;12.93;;
53875;SDS011;39789;53.216;5.624;2023-03-01T01:49:35;72.63;;;9.38;;
53875;SDS011;39789;53.216;5.624;2023-03-01T01:52:22;29.85;;;7.93;;
53875;SDS011;39789;53.216;5.624;2023-03-01T01:57:20;73.60;;;8.98;;
53875;SDS011;39789;53.216;5.624;2023-03-01T01:59:54;84.95;;;10.88;;
53875;SDS011;39789;53.216;5.624;2023-03-01T02:02:26;58.80;;;9.82;;
53875;SDS011;39789;53.216;5.624;2023-03-01T02:04:55;200.18;;;13.48;;
53875;SDS011;39789;53.216;5.624;2023-03-01T02:07:28;189.02;;;15.98;;
53875;SDS011;39789;53.216;5.624;2023-03-01T02:09:56;228.68;;;17.75;;
53875;SDS011;39789;53.216;5.624;2023-03-01T02:12:26;173.07;;;11.70;;
53875;SDS011;39789;53.216;5.624;2023-03-01T02:14:53;204.95;;;14.07;;
53875;SDS011;39789;53.216;5.624;2023-03-01T02:17:19;321.23;;;18.42;;
53875;SDS011;39789;53.216;5.624;2023-03-01T02:19:52;322.15;;;17.88;;
53875;SDS011;39789;53.216;5.624;2023-03-01T02:22:23;344.08;;;19.58;;
53875;SDS011;39789;53.216;5.624;2023-03-01T02:30:38;308.40;;;19.05;;
53875;SDS011;39789;53.216;5.624;2023-03-01T02:33:25;324.75;;;19.50;;
53875;SDS011;39789;53.216;5.624;2023-03-01T02:35:52;327.85;;;19.50;;
53875;SDS011;39789;53.216;5.624;2023-03-01T02:38:20;252.18;;;16.60;;
53875;SDS011;39789;53.216;5.624;2023-03-01T02:40:48;189.85;;;13.07;;
53875;SDS011;39789;53.216;5.624;2023-03-01T02:43:21;236.73;;;13.55;;
53875;SDS011;39789;53.216;5.624;2023-03-01T02:45:56;258.42;;;16.35;;
53875;SDS011;39789;53.216;5.624;2023-03-01T02:48:43;176.75;;;14.35;;
53875;SDS011;39789;53.216;5.624;2023-03-01T02:55:25;197.75;;;13.80;;
53875;SDS011;39789;53.216;5.624;2023-03-01T02:58:17;130.52;;;13.07;;
53875;SDS011;39789;53.216;5.624;2023-03-01T03:05:40;287.98;;;18.80;;
53875;SDS011;39789;53.216;5.624;2023-03-01T06:28:20;61.70;;;9.00;;
53875;SDS011;39789;53.216;5.624;2023-03-01T07:08:18;68.32;;;10.40;;
53875;SDS011;39789;53.216;5.624;2023-03-01T07:10:44;66.30;;;10.60;;
53875;SDS011;39789;53.216;5.624;2023-03-01T07:13:09;61.90;;;11.98;;
53875;SDS011;39789;53.216;5.624;2023-03-01T07:15:35;51.85;;;11.98;;
53875;SDS011;39789;53.216;5.624;2023-03-01T07:18:01;32.60;;;10.10;;
53875;SDS011;39789;53.216;5.624;2023-03-01T07:20:26;64.10;;;12.20;;
53875;SDS011;39789;53.216;5.624;2023-03-01T07:22:53;51.97;;;11.68;;
53875;SDS011;39789;53.216;5.624;2023-03-01T07:25:20;24.67;;;12.52;;
53875;SDS011;39789;53.216;5.624;2023-03-01T07:27:52;12.55;;;9.93;;
53875;SDS011;39789;53.216;5.624;2023-03-01T07:30:18;11.57;;;10.27;;
53875;SDS011;39789;53.216;5.624;2023-03-01T07:32:44;12.27;;;10.98;;
53875;SDS011;39789;53.216;5.624;2023-03-01T07:35:10;12.93;;;11.13;;
53875;SDS011;39789;53.216;5.624;2023-03-01T07:37:36;13.40;;;10.68;;
53875;SDS011;39789;53.216;5.624;2023-03-01T07:40:02;13.48;;;11.07;;
53875;SDS011;39789;53.216;5.624;2023-03-01T07:42:27;12.88;;;10.60;;
53875;SDS011;39789;53.216;5.624;2023-03-01T07:44:53;13.85;;;11.88;;
53875;SDS011;39789;53.216;5.624;2023-03-01T07:49:54;14.32;;;12.35;;
53875;SDS011;39789;53.216;5.624;2023-03-01T07:52:20;13.35;;;10.88;;
53875;SDS011;39789;53.216;5.624;2023-03-01T07:54:45;10.38;;;9.27;;
53875;SDS011;39789;53.216;5.624;2023-03-01T07:57:11;12.10;;;9.55;;
53875;SDS011;39789;53.216;5.624;2023-03-01T07:59:37;13.65;;;10.82;;
53875;SDS011;39789;53.216;5.624;2023-03-01T08:02:03;11.60;;;9.65;;
53875;SDS011;39789;53.216;5.624;2023-03-01T08:04:28;12.18;;;10.65;;
53875;SDS011;39789;53.216;5.624;2023-03-01T08:06:54;12.98;;;10.02;;
53875;SDS011;39789;53.216;5.624;2023-03-01T08:09:20;12.05;;;10.55;;
53875;SDS011;39789;53.216;5.624;2023-03-01T08:11:46;12.95;;;10.55;;
53875;SDS011;39789;53.216;5.624;2023-03-01T08:14:12;13.05;;;9.20;;
53875;SDS011;39789;53.216;5.624;2023-03-01T08:16:37;11.00;;;9.88;;
53875;SDS011;39789;53.216;5.624;2023-03-01T08:19:10;11.10;;;9.90;;
53875;SDS011;39789;53.216;5.624;2023-03-01T08:21:37;11.20;;;8.73;;
53875;SDS011;39789;53.216;5.624;2023-03-01T08:24:03;13.43;;;9.77;;
53875;SDS011;39789;53.216;5.624;2023-03-01T08:26:31;12.38;;;9.48;;
53875;SDS011;39789;53.216;5.624;2023-03-01T08:28:57;11.80;;;10.20;;
53875;SDS011;39789;53.216;5.624;2023-03-01T08:31:24;13.30;;;10.45;;
53875;SDS011;39789;53.216;5.624;2023-03-01T08:33:55;13.13;;;10.15;;
53875;SDS011;39789;53.216;5.624;2023-03-01T08:36:23;12.85;;;10.48;;
53875;SDS011;39789;53.216;5.624;2023-03-01T08:38:51;15.98;;;11.65;;
53875;SDS011;39789;53.216;5.624;2023-03-01T08:41:17;14.15;;;11.43;;
53875;SDS011;39789;53.216;5.624;2023-03-01T08:43:43;17.80;;;12.13;;
53875;SDS011;39789;53.216;5.624;2023-03-01T08:46:08;18.38;;;13.20;;
53875;SDS011;39789;53.216;5.624;2023-03-01T08:48:34;20.60;;;14.32;;
53875;SDS011;39789;53.216;5.624;2023-03-01T08:51:09;24.27;;;15.50;;
53875;SDS011;39789;53.216;5.624;2023-03-01T08:53:37;17.35;;;13.57;;
53875;SDS011;39789;53.216;5.624;2023-03-01T08:56:04;17.85;;;13.65;;
53875;SDS011;39789;53.216;5.624;2023-03-01T08:58:30;21.88;;;16.05;;
53875;SDS011;39789;53.216;5.624;2023-03-01T09:00:55;23.73;;;16.33;;
53875;SDS011;39789;53.216;5.624;2023-03-01T09:03:21;21.25;;;15.07;;
53875;SDS011;39789;53.216;5.624;2023-03-01T09:05:48;22.63;;;16.33;;
53875;SDS011;39789;53.216;5.624;2023-03-01T09:08:15;21.92;;;16.52;;
53875;SDS011;39789;53.216;5.624;2023-03-01T09:10:41;22.45;;;16.63;;
53875;SDS011;39789;53.216;5.624;2023-03-01T09:13:07;22.95;;;17.02;;
53875;SDS011;39789;53.216;5.624;2023-03-01T09:15:33;25.23;;;18.40;;
53875;SDS011;39789;53.216;5.624;2023-03-01T09:17:59;24.02;;;18.60;;
53875;SDS011;39789;53.216;5.624;2023-03-01T09:20:25;25.83;;;19.08;;
53875;SDS011;39789;53.216;5.624;2023-03-01T09:22:50;25.38;;;19.05;;
53875;SDS011;39789;53.216;5.624;2023-03-01T09:25:16;24.27;;;18.15;;
53875;SDS011;39789;53.216;5.624;2023-03-01T09:27:41;24.17;;;18.50;;
53875;SDS011;39789;53.216;5.624;2023-03-01T09:30:07;23.42;;;18.52;;
53875;SDS011;39789;53.216;5.624;2023-03-01T09:32:33;24.63;;;18.95;;
53875;SDS011;39789;53.216;5.624;2023-03-01T09:34:58;23.23;;;17.63;;
53875;SDS011;39789;53.216;5.624;2023-03-01T09:37:29;24.58;;;17.30;;
53875;SDS011;39789;53.216;5.624;2023-03-01T09:39:57;23.30;;;16.73;;
53875;SDS011;39789;53.216;5.624;2023-03-01T09:42:22;25.33;;;17.83;;
53875;SDS011;39789;53.216;5.624;2023-03-01T09:44:54;24.20;;;17.30;;
53875;SDS011;39789;53.216;5.624;2023-03-01T09:47:27;25.92;;;18.25;;
53875;SDS011;39789;53.216;5.624;2023-03-01T09:52:38;23.15;;;17.52;;
53875;SDS011;39789;53.216;5.624;2023-03-01T09:55:20;25.63;;;17.25;;
53875;SDS011;39789;53.216;5.624;2023-03-01T09:58:04;24.23;;;16.63;;
53875;SDS011;39789;53.216;5.624;2023-03-01T10:00:47;22.92;;;16.35;;
53875;SDS011;39789;53.216;5.624;2023-03-01T10:03:16;23.42;;;15.80;;
53875;SDS011;39789;53.216;5.624;2023-03-01T10:05:52;28.35;;;17.77;;
53875;SDS011;39789;53.216;5.624;2023-03-01T10:08:47;27.33;;;16.77;;
53875;SDS011;39789;53.216;5.624;2023-03-01T10:11:24;26.60;;;16.58;;
53875;SDS011;39789;53.216;5.624;2023-03-01T10:13:58;22.83;;;16.20;;
53875;SDS011;39789;53.216;5.624;2023-03-01T10:16:55;21.17;;;15.90;;
53875;SDS011;39789;53.216;5.624;2023-03-01T10:19:31;23.63;;;16.55;;
53875;SDS011;39789;53.216;5.624;2023-03-01T10:22:02;22.23;;;15.75;;
53875;SDS011;39789;53.216;5.624;2023-03-01T10:24:34;25.20;;;16.83;;
53875;SDS011;39789;53.216;5.624;2023-03-01T10:27:03;22.02;;;15.60;;
53875;SDS011;39789;53.216;5.624;2023-03-01T10:29:54;23.98;;;16.48;;
53875;SDS011;39789;53.216;5.624;2023-03-01T10:32:36;20.27;;;15.45;;
53875;SDS011;39789;53.216;5.624;2023-03-01T10:35:14;21.63;;;14.77;;
53875;SDS011;39789;53.216;5.624;2023-03-01T10:38:07;19.58;;;15.25;;
53875;SDS011;39789;53.216;5.624;2023-03-01T10:40:35;21.33;;;15.85;;
53875;SDS011;39789;53.216;5.624;2023-03-01T10:43:14;20.80;;;14.60;;
53875;SDS011;39789;53.216;5.624;2023-03-01T10:45:39;21.20;;;15.18;;
53875;SDS011;39789;53.216;5.624;2023-03-01T10:48:11;19.38;;;14.25;;
53875;SDS011;39789;53.216;5.624;2023-03-01T10:50:42;17.92;;;13.57;;
53875;SDS011;39789;53.216;5.624;2023-03-01T10:53:26;16.30;;;12.27;;
53875;SDS011;39789;53.216;5.624;2023-03-01T10:56:28;16.05;;;11.10;;
53875;SDS011;39789;53.216;5.624;2023-03-01T10:58:57;17.13;;;12.75;;
53875;SDS011;39789;53.216;5.624;2023-03-01T11:01:32;17.83;;;11.52;;
53875;SDS011;39789;53.216;5.624;2023-03-01T11:06:31;15.55;;;12.05;;
53875;SDS011;39789;53.216;5.624;2023-03-01T11:09:01;16.77;;;12.40;;
53875;SDS011;39789;53.216;5.624;2023-03-01T11:11:40;19.65;;;12.98;;
53875;SDS011;39789;53.216;5.624;2023-03-01T11:14:16;19.30;;;12.18;;
53875;SDS011;39789;53.216;5.624;2023-03-01T11:16:47;17.20;;;13.32;;
53875;SDS011;39789;53.216;5.624;2023-03-01T11:19:22;16.83;;;12.55;;
53875;SDS011;39789;53.216;5.624;2023-03-01T11:22:07;16.45;;;11.73;;
53875;SDS011;39789;53.216;5.624;2023-03-01T11:24:51;14.77;;;11.90;;
53875;SDS011;39789;53.216;5.624;2023-03-01T11:27:21;15.85;;;12.00;;
53875;SDS011;39789;53.216;5.624;2023-03-01T11:32:39;13.73;;;11.13;;
53875;SDS011;39789;53.216;5.624;2023-03-01T11:35:18;16.58;;;11.98;;
53875;SDS011;39789;53.216;5.624;2023-03-01T11:37:55;14.73;;;11.73;;
53875;SDS011;39789;53.216;5.624;2023-03-01T11:49:03;13.98;;;11.35;;
53875;SDS011;39789;53.216;5.624;2023-03-01T11:51:41;12.88;;;9.98;;
53875;SDS011;39789;53.216;5.624;2023-03-01T11:57:07;14.15;;;11.02;;
53875;SDS011;39789;53.216;5.624;2023-03-01T11:59:45;14.07;;;10.88;;
53875;SDS011;39789;53.216;5.624;2023-03-01T12:02:37;13.77;;;10.93;;
53875;SDS011;39789;53.216;5.624;2023-03-01T12:08:20;14.43;;;10.07;;
53875;SDS011;39789;53.216;5.624;2023-03-01T12:11:15;13.68;;;10.20;;
53875;SDS011;39789;53.216;5.624;2023-03-01T12:34:25;13.43;;;10.52;;
53875;SDS011;39789;53.216;5.624;2023-03-01T12:40:03;17.58;;;10.93;;
53875;SDS011;39789;53.216;5.624;2023-03-01T12:43:20;17.65;;;11.10;;
53875;SDS011;39789;53.216;5.624;2023-03-01T12:46:10;15.43;;;10.98;;
53875;SDS011;39789;53.216;5.624;2023-03-01T12:48:53;17.00;;;11.35;;
53875;SDS011;39789;53.216;5.624;2023-03-01T12:51:25;14.23;;;10.52;;
53875;SDS011;39789;53.216;5.624;2023-03-01T12:53:55;16.77;;;11.82;;
53875;SDS011;39789;53.216;5.624;2023-03-01T12:56:27;16.20;;;11.70;;
53875;SDS011;39789;53.216;5.624;2023-03-01T13:02:10;15.32;;;11.73;;
53875;SDS011;39789;53.216;5.624;2023-03-01T13:07:36;14.50;;;11.45;;
53875;SDS011;39789;53.216;5.624;2023-03-01T13:12:51;19.00;;;13.25;;
53875;SDS011;39789;53.216;5.624;2023-03-01T13:15:27;15.73;;;12.40;;
53875;SDS011;39789;53.216;5.624;2023-03-01T13:17:58;18.17;;;12.95;;
53875;SDS011;39789;53.216;5.624;2023-03-01T13:23:10;17.75;;;13.40;;
53875;SDS011;39789;53.216;5.624;2023-03-01T13:33:53;18.10;;;13.10;;
53875;SDS011;39789;53.216;5.624;2023-03-01T13:38:56;16.27;;;12.93;;
53875;SDS011;39789;53.216;5.624;2023-03-01T13:41:47;16.77;;;12.68;;
53875;SDS011;39789;53.216;5.624;2023-03-01T13:44:25;17.80;;;13.38;;
53875;SDS011;39789;53.216;5.624;2023-03-01T13:46:56;17.23;;;13.32;;
53875;SDS011;39789;53.216;5.624;2023-03-01T13:49:29;19.17;;;12.48;;
53875;SDS011;39789;53.216;5.624;2023-03-01T13:52:14;16.55;;;12.35;;
53875;SDS011;39789;53.216;5.624;2023-03-01T13:54:57;17.92;;;12.75;;
53875;SDS011;39789;53.216;5.624;2023-03-01T13:57:25;18.42;;;13.90;;
53875;SDS011;39789;53.216;5.624;2023-03-01T13:59:55;19.58;;;13.48;;
53875;SDS011;39789;53.216;5.624;2023-03-01T14:02:20;18.10;;;12.98;;
53875;SDS011;39789;53.216;5.624;2023-03-01T14:04:55;18.98;;;12.60;;
53875;SDS011;39789;53.216;5.624;2023-03-01T14:07:22;18.80;;;12.65;;
53875;SDS011;39789;53.216;5.624;2023-03-01T14:09:54;16.73;;;12.75;;
53875;SDS011;39789;53.216;5.624;2023-03-01T14:12:36;20.17;;;12.77;;
53875;SDS011;39789;53.216;5.624;2023-03-01T14:15:18;19.50;;;13.85;;
53875;SDS011;39789;53.216;5.624;2023-03-01T14:20:24;16.90;;;11.80;;
53875;SDS011;39789;53.216;5.624;2023-03-01T14:22:54;17.17;;;11.80;;
53875;SDS011;39789;53.216;5.624;2023-03-01T14:25:23;15.70;;;11.68;;
53875;SDS011;39789;53.216;5.624;2023-03-01T14:30:30;18.42;;;12.75;;
53875;SDS011;39789;53.216;5.624;2023-03-01T14:33:03;14.82;;;11.13;;
53875;SDS011;39789;53.216;5.624;2023-03-01T14:35:41;19.40;;;12.15;;
53875;SDS011;39789;53.216;5.624;2023-03-01T14:38:13;16.30;;;11.82;;
53875;SDS011;39789;53.216;5.624;2023-03-01T14:40:54;16.08;;;11.55;;
53875;SDS011;39789;53.216;5.624;2023-03-01T14:43:23;17.38;;;11.23;;
53875;SDS011;39789;53.216;5.624;2023-03-01T14:45:51;16.65;;;12.07;;
53875;SDS011;39789;53.216;5.624;2023-03-01T14:48:17;18.52;;;12.10;;
53875;SDS011;39789;53.216;5.624;2023-03-01T14:50:43;18.08;;;12.85;;
53875;SDS011;39789;53.216;5.624;2023-03-01T14:53:27;14.77;;;11.20;;
53875;SDS011;39789;53.216;5.624;2023-03-01T14:55:55;16.88;;;11.30;;
53875;SDS011;39789;53.216;5.624;2023-03-01T14:58:27;18.13;;;12.05;;
53875;SDS011;39789;53.216;5.624;2023-03-01T15:00:53;14.20;;;11.23;;
53875;SDS011;39789;53.216;5.624;2023-03-01T15:05:56;16.60;;;11.07;;
53875;SDS011;39789;53.216;5.624;2023-03-01T15:08:24;15.20;;;11.40;;
53875;SDS011;39789;53.216;5.624;2023-03-01T15:10:59;15.30;;;11.10;;
53875;SDS011;39789;53.216;5.624;2023-03-01T15:13:26;17.85;;;12.80;;
53875;SDS011;39789;53.216;5.624;2023-03-01T15:16:15;18.02;;;12.45;;
53875;SDS011;39789;53.216;5.624;2023-03-01T15:18:57;15.68;;;11.00;;
53875;SDS011;39789;53.216;5.624;2023-03-01T15:21:26;17.25;;;11.00;;
53875;SDS011;39789;53.216;5.624;2023-03-01T15:24:02;15.48;;;11.60;;
53875;SDS011;39789;53.216;5.624;2023-03-01T15:26:43;14.65;;;10.43;;
53875;SDS011;39789;53.216;5.624;2023-03-01T15:29:16;13.30;;;10.02;;
53875;SDS011;39789;53.216;5.624;2023-03-01T15:31:43;14.02;;;10.50;;
53875;SDS011;39789;53.216;5.624;2023-03-01T15:34:24;13.65;;;10.05;;
53875;SDS011;39789;53.216;5.624;2023-03-01T15:36:51;14.25;;;10.40;;
53875;SDS011;39789;53.216;5.624;2023-03-01T15:39:32;12.43;;;8.77;;
53875;SDS011;39789;53.216;5.624;2023-03-01T15:42:02;14.05;;;9.82;;
53875;SDS011;39789;53.216;5.624;2023-03-01T15:47:35;10.77;;;8.48;;
53875;SDS011;39789;53.216;5.624;2023-03-01T15:50:04;11.68;;;8.82;;
53875;SDS011;39789;53.216;5.624;2023-03-01T15:52:34;10.10;;;7.82;;
53875;SDS011;39789;53.216;5.624;2023-03-01T15:55:05;13.18;;;9.93;;
53875;SDS011;39789;53.216;5.624;2023-03-01T15:57:40;16.63;;;11.13;;
53875;SDS011;39789;53.216;5.624;2023-03-01T16:00:05;15.23;;;10.73;;
53875;SDS011;39789;53.216;5.624;2023-03-01T16:02:36;16.70;;;12.23;;
53875;SDS011;39789;53.216;5.624;2023-03-01T16:05:03;17.27;;;11.55;;
53875;SDS011;39789;53.216;5.624;2023-03-01T16:07:29;16.15;;;10.70;;
53875;SDS011;39789;53.216;5.624;2023-03-01T16:09:56;16.90;;;12.38;;
53875;SDS011;39789;53.216;5.624;2023-03-01T16:12:22;18.02;;;11.45;;
53875;SDS011;39789;53.216;5.624;2023-03-01T16:14:49;16.73;;;12.00;;
53875;SDS011;39789;53.216;5.624;2023-03-01T16:17:15;14.30;;;10.02;;
53875;SDS011;39789;53.216;5.624;2023-03-01T16:19:40;16.88;;;10.00;;
53875;SDS011;39789;53.216;5.624;2023-03-01T16:22:06;15.98;;;10.82;;
53875;SDS011;39789;53.216;5.624;2023-03-01T16:24:35;14.18;;;9.77;;
53875;SDS011;39789;53.216;5.624;2023-03-01T16:27:01;16.73;;;10.43;;
53875;SDS011;39789;53.216;5.624;2023-03-01T16:29:27;18.55;;;11.25;;
53875;SDS011;39789;53.216;5.624;2023-03-01T16:31:54;16.25;;;11.43;;
53875;SDS011;39789;53.216;5.624;2023-03-01T16:34:19;19.67;;;11.25;;
53875;SDS011;39789;53.216;5.624;2023-03-01T16:36:46;17.23;;;10.43;;
53875;SDS011;39789;53.216;5.624;2023-03-01T16:39:12;17.92;;;11.75;;
53875;SDS011;39789;53.216;5.624;2023-03-01T16:41:37;18.90;;;12.35;;
53875;SDS011;39789;53.216;5.624;2023-03-01T16:44:03;23.10;;;13.82;;
53875;SDS011;39789;53.216;5.624;2023-03-01T16:46:29;20.00;;;13.77;;
53875;SDS011;39789;53.216;5.624;2023-03-01T16:48:55;21.83;;;14.20;;
53875;SDS011;39789;53.216;5.624;2023-03-01T16:51:21;22.35;;;15.52;;
53875;SDS011;39789;53.216;5.624;2023-03-01T16:53:48;26.33;;;16.17;;
53875;SDS011;39789;53.216;5.624;2023-03-01T16:56:14;21.98;;;15.63;;
53875;SDS011;39789;53.216;5.624;2023-03-01T16:58:41;22.42;;;15.60;;
53875;SDS011;39789;53.216;5.624;2023-03-01T17:01:08;24.25;;;17.45;;
53875;SDS011;39789;53.216;5.624;2023-03-01T17:03:36;24.67;;;16.45;;
53875;SDS011;39789;53.216;5.624;2023-03-01T17:06:06;25.95;;;18.02;;
53875;SDS011;39789;53.216;5.624;2023-03-01T17:11:04;25.58;;;18.35;;
53875;SDS011;39789;53.216;5.624;2023-03-01T17:13:31;26.02;;;19.00;;
53875;SDS011;39789;53.216;5.624;2023-03-01T17:15:56;28.38;;;18.67;;
53875;SDS011;39789;53.216;5.624;2023-03-01T17:18:22;28.02;;;19.08;;
53875;SDS011;39789;53.216;5.624;2023-03-01T17:20:49;25.80;;;17.55;;
53875;SDS011;39789;53.216;5.624;2023-03-01T17:23:14;25.15;;;17.73;;
53875;SDS011;39789;53.216;5.624;2023-03-01T17:25:45;29.35;;;18.73;;
53875;SDS011;39789;53.216;5.624;2023-03-01T17:28:14;26.10;;;18.20;;
53875;SDS011;39789;53.216;5.624;2023-03-01T17:30:43;32.70;;;19.33;;
53875;SDS011;39789;53.216;5.624;2023-03-01T17:33:11;29.27;;;18.08;;
53875;SDS011;39789;53.216;5.624;2023-03-01T17:35:37;29.48;;;17.70;;
53875;SDS011;39789;53.216;5.624;2023-03-01T17:38:04;28.48;;;18.85;;
53875;SDS011;39789;53.216;5.624;2023-03-01T17:40:30;27.83;;;17.27;;
53875;SDS011;39789;53.216;5.624;2023-03-01T17:42:56;28.63;;;18.77;;
53875;SDS011;39789;53.216;5.624;2023-03-01T17:45:22;28.05;;;18.10;;
53875;SDS011;39789;53.216;5.624;2023-03-01T17:47:48;28.65;;;18.10;;
53875;SDS011;39789;53.216;5.624;2023-03-01T17:50:16;25.55;;;18.33;;
53875;SDS011;39789;53.216;5.624;2023-03-01T17:52:41;31.35;;;19.73;;
53875;SDS011;39789;53.216;5.624;2023-03-01T17:55:07;28.15;;;18.90;;
53875;SDS011;39789;53.216;5.624;2023-03-01T17:57:33;29.27;;;19.10;;
53875;SDS011;39789;53.216;5.624;2023-03-01T18:00:02;26.60;;;19.30;;
53875;SDS011;39789;53.216;5.624;2023-03-01T18:02:29;29.58;;;20.17;;
53875;SDS011;39789;53.216;5.624;2023-03-01T18:04:58;29.35;;;19.02;;
53875;SDS011;39789;53.216;5.624;2023-03-01T18:07:27;29.13;;;18.70;;
53875;SDS011;39789;53.216;5.624;2023-03-01T18:09:53;31.30;;;19.58;;
53875;SDS011;39789;53.216;5.624;2023-03-01T18:12:19;31.27;;;20.63;;
53875;SDS011;39789;53.216;5.624;2023-03-01T18:14:45;29.73;;;20.50;;
53875;SDS011;39789;53.216;5.624;2023-03-01T18:17:12;27.63;;;19.55;;
53875;SDS011;39789;53.216;5.624;2023-03-01T18:19:38;29.55;;;20.05;;
53875;SDS011;39789;53.216;5.624;2023-03-01T18:22:07;27.88;;;18.85;;
53875;SDS011;39789;53.216;5.624;2023-03-01T18:24:33;27.10;;;18.05;;
53875;SDS011;39789;53.216;5.624;2023-03-01T18:26:59;26.58;;;19.60;;
53875;SDS011;39789;53.216;5.624;2023-03-01T18:29:25;30.00;;;18.92;;
53875;SDS011;39789;53.216;5.624;2023-03-01T18:31:50;30.15;;;19.00;;
53875;SDS011;39789;53.216;5.624;2023-03-01T18:34:16;27.80;;;18.77;;
53875;SDS011;39789;53.216;5.624;2023-03-01T18:36:41;25.88;;;17.88;;
53875;SDS011;39789;53.216;5.624;2023-03-01T18:39:07;26.30;;;18.63;;
53875;SDS011;39789;53.216;5.624;2023-03-01T18:41:33;28.65;;;18.33;;
53875;SDS011;39789;53.216;5.624;2023-03-01T18:44:00;27.92;;;18.27;;
53875;SDS011;39789;53.216;5.624;2023-03-01T18:46:26;27.33;;;18.17;;
53875;SDS011;39789;53.216;5.624;2023-03-01T18:48:52;23.98;;;17.23;;
53875;SDS011;39789;53.216;5.624;2023-03-01T18:51:19;26.00;;;17.45;;
53875;SDS011;39789;53.216;5.624;2023-03-01T18:53:55;22.20;;;16.33;;
53875;SDS011;39789;53.216;5.624;2023-03-01T18:56:22;27.42;;;17.85;;
53875;SDS011;39789;53.216;5.624;2023-03-01T18:58:48;24.50;;;17.00;;
53875;SDS011;39789;53.216;5.624;2023-03-01T19:01:15;23.17;;;16.45;;
53875;SDS011;39789;53.216;5.624;2023-03-01T19:03:45;26.40;;;16.35;;
53875;SDS011;39789;53.216;5.624;2023-03-01T19:06:11;21.75;;;15.88;;
53875;SDS011;39789;53.216;5.624;2023-03-01T19:08:36;27.88;;;15.65;;
53875;SDS011;39789;53.216;5.624;2023-03-01T19:11:04;22.15;;;14.50;;
53875;SDS011;39789;53.216;5.624;2023-03-01T19:13:31;19.85;;;14.75;;
53875;SDS011;39789;53.216;5.624;2023-03-01T19:16:03;18.08;;;13.43;;
53875;SDS011;39789;53.216;5.624;2023-03-01T19:18:34;21.35;;;14.10;;
53875;SDS011;39789;53.216;5.624;2023-03-01T19:21:01;19.88;;;14.05;;
53875;SDS011;39789;53.216;5.624;2023-03-01T19:23:28;22.88;;;14.48;;
53875;SDS011;39789;53.216;5.624;2023-03-01T19:25:59;23.73;;;13.90;;
53875;SDS011;39789;53.216;5.624;2023-03-01T19:28:25;18.02;;;13.95;;
53875;SDS011;39789;53.216;5.624;2023-03-01T19:30:51;18.70;;;14.40;;
53875;SDS011;39789;53.216;5.624;2023-03-01T19:33:28;18.40;;;13.13;;
53875;SDS011;39789;53.216;5.624;2023-03-01T19:35:55;19.02;;;13.35;;
53875;SDS011;39789;53.216;5.624;2023-03-01T19:38:21;15.07;;;12.23;;
53875;SDS011;39789;53.216;5.624;2023-03-01T19:40:47;19.98;;;12.30;;
53875;SDS011;39789;53.216;5.624;2023-03-01T19:43:13;17.98;;;13.48;;
53875;SDS011;39789;53.216;5.624;2023-03-01T19:45:39;19.48;;;12.85;;
53875;SDS011;39789;53.216;5.624;2023-03-01T19:48:04;19.25;;;12.43;;
53875;SDS011;39789;53.216;5.624;2023-03-01T19:50:30;18.27;;;13.38;;
53875;SDS011;39789;53.216;5.624;2023-03-01T19:52:56;21.90;;;12.63;;
53875;SDS011;39789;53.216;5.624;2023-03-01T19:55:21;19.73;;;12.50;;
53875;SDS011;39789;53.216;5.624;2023-03-01T19:57:47;17.00;;;11.65;;
53875;SDS011;39789;53.216;5.624;2023-03-01T20:00:13;16.27;;;11.05;;
53875;SDS011;39789;53.216;5.624;2023-03-01T20:02:39;16.27;;;11.65;;
53875;SDS011;39789;53.216;5.624;2023-03-01T20:05:05;14.95;;;10.57;;
53875;SDS011;39789;53.216;5.624;2023-03-01T20:07:30;15.90;;;10.75;;
53875;SDS011;39789;53.216;5.624;2023-03-01T20:09:56;21.65;;;11.50;;
53875;SDS011;39789;53.216;5.624;2023-03-01T20:12:22;14.93;;;11.25;;
53875;SDS011;39789;53.216;5.624;2023-03-01T20:14:47;20.08;;;11.80;;
53875;SDS011;39789;53.216;5.624;2023-03-01T20:17:15;17.92;;;11.60;;